Terminal Aerodrome Forecast
Issued by NWS

Home | Current Version | Previous Version | Text Only | Print | Product List | Glossary On
Versions: 1 2 3 4 5 6 7 8 9 10 11 12 13 14 15 16
885
FTUS41 KBTV 251728
TAFSLK
TAF
KSLK 251728Z 2518/2618 13010G16KT P6SM -RA OVC040
     FM252300 13009KT P6SM VCSH OVC030 WS020/15040KT
     FM260200 12008KT 5SM -SHRA BR SCT010 OVC030 WS020/15035KT
     FM260800 10004KT 5SM -SHRA OVC015
     FM261200 10004KT P6SM VCSH OVC015
     FM261700 13005KT P6SM OVC040=

USA.gov is the U.S. government's official web portal to all federal, state and local government web resources and services.